createdAt,value
2022-11-14T00:00:18.494Z,99.99
2022-11-14T00:01:18.406Z,99.99
2022-11-14T00:02:18.375Z,99.99
2022-11-14T00:03:18.269Z,99.99
2022-11-14T00:04:18.161Z,99.99
2022-11-14T00:05:18.077Z,99.99
2022-11-14T00:06:17.984Z,99.99
2022-11-14T00:07:18.082Z,99.99
2022-11-14T00:08:17.812Z,99.99
2022-11-14T00:09:17.728Z,99.99
2022-11-14T00:10:17.641Z,99.99
2022-11-14T00:11:17.559Z,99.99
2022-11-14T00:12:17.477Z,99.99
2022-11-14T00:13:17.385Z,99.99
2022-11-14T00:14:17.305Z,99.99
2022-11-14T00:15:17.220Z,99.99
2022-11-14T00:16:17.132Z,99.99
2022-11-14T00:17:17.046Z,99.99
2022-11-14T00:18:16.963Z,99.99
2022-11-14T00:19:16.872Z,99.99
2022-11-14T00:20:16.794Z,99.99
2022-11-14T00:21:16.712Z,99.99
2022-11-14T00:22:16.620Z,99.99
2022-11-14T00:23:16.538Z,99.99
2022-11-14T00:24:16.447Z,99.99
2022-11-14T00:25:16.363Z,99.99
2022-11-14T00:26:16.305Z,99.99
2022-11-14T00:27:16.194Z,99.99
2022-11-14T00:28:16.210Z,99.99
2022-11-14T00:29:16.022Z,99.99
2022-11-14T00:30:15.951Z,99.99
2022-11-14T00:31:15.848Z,99.99
2022-11-14T00:32:15.771Z,99.99
2022-11-14T00:33:20.140Z,99.99
2022-11-14T00:34:15.601Z,99.99
2022-11-14T00:35:15.511Z,99.99
2022-11-14T00:36:15.438Z,99.99
2022-11-14T00:37:15.342Z,99.99
2022-11-14T00:38:15.256Z,99.99
2022-11-14T00:39:15.169Z,99.99
2022-11-14T00:40:15.085Z,99.99
2022-11-14T00:41:15.002Z,99.99
2022-11-14T00:42:14.924Z,99.99
2022-11-14T00:43:14.829Z,99.99
2022-11-14T00:44:14.844Z,99.99
2022-11-14T00:45:14.659Z,99.99
2022-11-14T00:46:14.581Z,99.99
2022-11-14T00:47:14.489Z,99.99
2022-11-14T00:48:14.406Z,99.99
2022-11-14T00:49:14.320Z,99.99
2022-11-14T00:50:14.236Z,99.99
2022-11-14T00:51:14.146Z,99.99
2022-11-14T00:52:14.066Z,99.99
2022-11-14T00:53:13.977Z,99.99
2022-11-14T00:54:13.892Z,99.99
2022-11-14T00:55:13.801Z,99.99
2022-11-14T00:56:13.721Z,99.99
2022-11-14T00:57:13.637Z,99.99
2022-11-14T00:58:13.549Z,99.99
2022-11-14T00:59:13.467Z,99.99
2022-11-14T01:00:13.476Z,99.99
2022-11-14T01:01:13.350Z,99.99
2022-11-14T01:02:13.209Z,99.99
2022-11-14T01:03:13.123Z,99.99
2022-11-14T01:04:13.041Z,99.99
2022-11-14T01:05:12.950Z,99.99
2022-11-14T01:06:12.870Z,99.99
2022-11-14T01:07:12.783Z,99.99
2022-11-14T01:08:12.697Z,99.99
2022-11-14T01:09:12.661Z,99.99
2022-11-14T01:10:12.530Z,99.99
2022-11-14T01:11:12.443Z,99.99
2022-11-14T01:12:12.358Z,99.99
2022-11-14T01:13:12.269Z,99.99
2022-11-14T01:14:12.187Z,99.99
2022-11-14T01:15:12.099Z,99.99
2022-11-14T01:16:12.112Z,99.99
2022-11-14T01:17:11.931Z,99.99
2022-11-14T01:18:11.842Z,99.99
2022-11-14T01:19:11.765Z,99.99
2022-11-14T01:20:11.675Z,99.99
2022-11-14T01:21:11.588Z,99.99
2022-11-14T01:22:11.505Z,99.99
2022-11-14T01:23:11.420Z,99.99
2022-11-14T01:24:11.330Z,99.99
2022-11-14T01:25:11.246Z,99.99
2022-11-14T01:26:11.164Z,99.99
2022-11-14T01:27:11.077Z,99.99
2022-11-14T01:28:10.989Z,99.99
2022-11-14T01:29:10.909Z,99.99
2022-11-14T01:30:10.819Z,99.99
2022-11-14T01:31:10.735Z,99.99
2022-11-14T01:32:10.745Z,99.99
2022-11-14T01:33:10.559Z,99.99
2022-11-14T01:34:10.478Z,99.99
2022-11-14T01:35:10.386Z,99.99
2022-11-14T01:36:10.305Z,99.99
2022-11-14T01:37:10.216Z,99.99
2022-11-14T01:38:10.145Z,99.99
2022-11-14T01:39:10.054Z,99.99
2022-11-14T01:40:09.962Z,99.99
2022-11-14T01:41:09.882Z,99.99
2022-11-14T01:42:09.794Z,99.99
2022-11-14T01:43:09.704Z,99.99
2022-11-14T01:44:09.623Z,99.99
2022-11-14T01:45:09.543Z,99.99
2022-11-14T01:46:09.452Z,99.99
2022-11-14T01:47:09.361Z,99.99
2022-11-14T01:48:09.373Z,99.99
2022-11-14T01:49:09.197Z,99.99
2022-11-14T01:50:09.107Z,99.99
2022-11-14T01:51:09.024Z,99.99
2022-11-14T01:52:08.939Z,99.99
2022-11-14T01:53:08.850Z,99.99
2022-11-14T01:54:08.768Z,99.99
2022-11-14T01:55:08.679Z,99.99
2022-11-14T01:56:08.597Z,99.99
2022-11-14T01:57:08.508Z,99.99
2022-11-14T01:58:08.428Z,99.99
2022-11-14T01:59:08.337Z,99.99
2022-11-14T02:00:08.256Z,99.99
2022-11-14T02:01:08.233Z,99.99
2022-11-14T02:02:08.086Z,99.99
2022-11-14T02:03:07.994Z,99.99
2022-11-14T02:04:10.613Z,99.99
2022-11-14T02:05:07.824Z,99.66
2022-11-14T02:06:07.744Z,99.09
2022-11-14T02:07:07.711Z,99.38
2022-11-14T02:08:07.575Z,99.95
2022-11-14T02:09:07.486Z,99.99
2022-11-14T02:10:07.398Z,99.99
2022-11-14T02:11:07.309Z,99.99
2022-11-14T02:12:07.235Z,99.99
2022-11-14T02:13:07.145Z,99.99
2022-11-14T02:14:07.057Z,99.99
2022-11-14T02:15:06.967Z,99.99
2022-11-14T02:16:06.884Z,99.99
2022-11-14T02:17:28.541Z,99.99
2022-11-14T02:18:06.712Z,99.99
2022-11-14T02:19:06.627Z,99.99
2022-11-14T02:20:06.633Z,99.99
2022-11-14T02:21:06.459Z,99.99
2022-11-14T02:22:06.370Z,99.99
2022-11-14T02:23:06.283Z,99.99
2022-11-14T02:24:06.195Z,99.99
2022-11-14T02:25:06.111Z,99.99
2022-11-14T02:26:06.026Z,99.99
2022-11-14T02:27:05.941Z,99.99
2022-11-14T02:28:05.853Z,99.99
2022-11-14T02:29:05.767Z,99.99
2022-11-14T02:30:05.689Z,99.99
2022-11-14T02:31:05.595Z,99.99
2022-11-14T02:32:10.317Z,99.99
2022-11-14T02:33:12.701Z,99.99
2022-11-14T02:34:05.348Z,99.99
2022-11-14T02:35:05.256Z,99.99
2022-11-14T02:36:05.270Z,99.99
2022-11-14T02:37:05.085Z,99.99
2022-11-14T02:38:04.997Z,99.99
2022-11-14T02:39:04.910Z,99.99
2022-11-14T02:40:04.823Z,99.99
2022-11-14T02:41:04.742Z,99.99
2022-11-14T02:42:04.654Z,99.99
2022-11-14T02:43:04.567Z,99.99
2022-11-14T02:44:04.482Z,99.99
2022-11-14T02:45:04.396Z,99.99
2022-11-14T02:46:05.809Z,99.99
2022-11-14T02:47:04.227Z,99.99
2022-11-14T02:48:04.167Z,99.99
2022-11-14T02:49:04.055Z,99.99
2022-11-14T02:50:03.976Z,99.99
2022-11-14T02:51:03.884Z,99.99
2022-11-14T02:52:03.894Z,99.99
2022-11-14T02:53:03.711Z,99.99
2022-11-14T02:54:03.633Z,99.99
2022-11-14T02:55:03.543Z,99.99
2022-11-14T02:56:03.460Z,99.99
2022-11-14T02:57:03.370Z,99.99
2022-11-14T02:58:03.282Z,99.99
2022-11-14T02:59:03.199Z,99.99
2022-11-14T03:00:03.112Z,99.99
2022-11-14T03:02:03.003Z,99.99
2022-11-14T03:03:02.853Z,99.99
2022-11-14T03:04:02.772Z,99.99
2022-11-14T03:05:02.685Z,99.99
2022-11-14T03:06:02.602Z,99.99
2022-11-14T03:07:02.542Z,99.99
2022-11-14T03:08:02.601Z,99.99
2022-11-14T03:09:02.342Z,99.99
2022-11-14T03:10:02.255Z,99.99
2022-11-14T03:11:02.175Z,99.99
2022-11-14T03:12:02.097Z,99.99
2022-11-14T03:13:01.995Z,99.99
2022-11-14T03:14:01.920Z,99.99
2022-11-14T03:15:01.831Z,99.99
2022-11-14T03:16:01.742Z,99.99
2022-11-14T03:17:01.653Z,99.99
2022-11-14T03:18:01.576Z,99.99
2022-11-14T03:19:01.482Z,99.99
2022-11-14T03:20:01.394Z,99.99
2022-11-14T03:21:01.312Z,99.99
2022-11-14T03:22:01.225Z,99.99
2022-11-14T03:23:01.135Z,99.99
2022-11-14T03:24:01.176Z,99.99
2022-11-14T03:25:00.963Z,99.99
2022-11-14T03:26:00.880Z,99.99
2022-11-14T03:27:00.797Z,99.99
2022-11-14T03:28:00.727Z,99.99
2022-11-14T03:29:00.623Z,99.99
2022-11-14T03:30:00.548Z,99.99
2022-11-14T03:31:00.455Z,99.99
2022-11-14T03:32:00.369Z,99.99
2022-11-14T03:33:00.285Z,99.99
2022-11-14T03:34:00.192Z,99.99
2022-11-14T03:35:00.112Z,99.99
2022-11-14T03:36:00.026Z,99.99
2022-11-14T03:36:59.934Z,99.99
2022-11-14T03:37:59.853Z,99.99
2022-11-14T03:38:59.768Z,99.99
2022-11-14T03:39:59.780Z,99.99
2022-11-14T03:40:59.591Z,99.99
2022-11-14T03:41:59.513Z,99.99
2022-11-14T03:42:59.420Z,99.99
2022-11-14T03:43:59.336Z,99.99
2022-11-14T03:44:59.252Z,99.99
2022-11-14T03:45:59.161Z,99.99
2022-11-14T03:46:59.078Z,99.99
2022-11-14T03:47:58.999Z,99.99
2022-11-14T03:48:58.908Z,99.99
2022-11-14T03:49:58.818Z,99.99
2022-11-14T03:50:58.732Z,99.99
2022-11-14T03:51:58.706Z,99.99
2022-11-14T03:52:58.562Z,99.99
2022-11-14T03:53:58.472Z,99.99
2022-11-14T03:54:58.392Z,99.99
2022-11-14T03:55:58.397Z,99.99
2022-11-14T03:56:58.222Z,99.99
2022-11-14T03:57:58.129Z,99.99
2022-11-14T03:58:58.043Z,99.99
2022-11-14T03:59:57.959Z,99.99
2022-11-14T04:00:57.930Z,99.99
2022-11-14T04:01:57.787Z,99.99
2022-11-14T04:02:57.700Z,99.99
2022-11-14T04:03:57.614Z,99.99
2022-11-14T04:04:57.532Z,99.99
2022-11-14T04:05:57.463Z,99.99
2022-11-14T04:06:57.422Z,99.99
2022-11-14T04:07:57.269Z,99.99
2022-11-14T04:08:57.215Z,99.99
2022-11-14T04:09:57.099Z,99.99
2022-11-14T04:10:57.015Z,99.99
2022-11-14T04:11:57.021Z,99.99
2022-11-14T04:12:56.841Z,99.99
2022-11-14T04:13:56.757Z,99.99
2022-11-14T04:14:56.670Z,99.99
2022-11-14T04:15:56.581Z,99.99
2022-11-14T04:16:56.499Z,99.99
2022-11-14T04:17:56.411Z,99.99
2022-11-14T04:18:56.330Z,99.99
2022-11-14T04:19:56.244Z,99.99
2022-11-14T04:20:56.153Z,99.99
2022-11-14T04:21:56.065Z,99.99
2022-11-14T04:22:55.978Z,99.99
2022-11-14T04:23:55.897Z,99.99
2022-11-14T04:24:55.812Z,99.99
2022-11-14T04:25:55.724Z,99.99
2022-11-14T04:26:55.636Z,99.99
2022-11-14T04:27:55.648Z,99.99
2022-11-14T04:28:55.470Z,99.99
2022-11-14T04:29:55.376Z,99.99
2022-11-14T04:30:55.304Z,99.99
2022-11-14T04:31:55.204Z,99.99
2022-11-14T04:32:55.120Z,99.99
2022-11-14T04:33:55.035Z,99.99
2022-11-14T04:34:54.954Z,99.99
2022-11-14T04:35:54.862Z,99.99
2022-11-14T04:36:54.777Z,99.99
2022-11-14T04:37:54.693Z,99.99
2022-11-14T04:38:54.606Z,99.99
2022-11-14T04:39:54.528Z,99.99
2022-11-14T04:40:54.439Z,99.99
2022-11-14T04:41:54.354Z,99.99
2022-11-14T04:42:54.259Z,99.99
2022-11-14T04:43:54.271Z,99.99
2022-11-14T04:44:54.113Z,99.99
2022-11-14T04:45:54.000Z,99.99
2022-11-14T04:46:53.922Z,99.99
2022-11-14T04:47:53.830Z,99.99
2022-11-14T04:48:53.746Z,99.99
2022-11-14T04:49:53.659Z,99.99
2022-11-14T04:50:53.574Z,99.99
2022-11-14T04:51:53.509Z,99.99
2022-11-14T04:52:53.402Z,99.99
2022-11-14T04:53:53.317Z,99.99
2022-11-14T04:54:53.248Z,99.99
2022-11-14T04:55:53.141Z,99.99
2022-11-14T04:56:53.062Z,99.99
2022-11-14T04:57:52.971Z,99.99
2022-11-14T04:58:52.887Z,99.99
2022-11-14T04:59:52.799Z,99.99
2022-11-14T05:00:52.715Z,99.99
2022-11-14T05:01:52.709Z,99.99
2022-11-14T05:02:52.540Z,99.99
2022-11-14T05:03:52.457Z,99.99
2022-11-14T05:04:52.369Z,99.99
2022-11-14T05:05:52.286Z,99.99
2022-11-14T05:06:52.248Z,99.99
2022-11-14T05:07:52.112Z,99.99
2022-11-14T05:08:52.031Z,99.99
2022-11-14T05:09:51.939Z,99.99
2022-11-14T05:10:51.855Z,99.99
2022-11-14T05:11:51.772Z,99.99
2022-11-14T05:12:51.685Z,99.99
2022-11-14T05:13:51.599Z,99.99
2022-11-14T05:14:51.516Z,99.99
2022-11-14T05:15:51.445Z,99.99
2022-11-14T05:16:51.346Z,99.99
2022-11-14T05:17:51.252Z,99.99
2022-11-14T05:18:51.173Z,99.99
2022-11-14T05:19:51.081Z,99.99
2022-11-14T05:20:51.014Z,99.99
2022-11-14T05:21:50.912Z,99.99
2022-11-14T05:22:50.828Z,99.99
2022-11-14T05:23:50.736Z,99.99
2022-11-14T05:24:50.657Z,99.99
2022-11-14T05:25:54.677Z,99.99
2022-11-14T05:26:50.486Z,99.99
2022-11-14T05:27:50.395Z,99.99
2022-11-14T05:28:50.318Z,99.99
2022-11-14T05:29:50.229Z,99.99
2022-11-14T05:30:50.142Z,99.99
2022-11-14T05:31:50.052Z,99.99
2022-11-14T05:32:49.969Z,99.99
2022-11-14T05:33:49.889Z,99.99
2022-11-14T05:34:49.798Z,99.99
2022-11-14T05:35:49.715Z,99.99
2022-11-14T05:36:49.632Z,99.99
2022-11-14T05:37:49.539Z,99.99
2022-11-14T05:38:49.455Z,99.99
2022-11-14T05:39:49.376Z,99.99
2022-11-14T05:40:49.291Z,99.99
2022-11-14T05:41:49.202Z,99.99
2022-11-14T05:42:49.113Z,99.99
2022-11-14T05:43:49.023Z,99.99
2022-11-14T05:44:48.944Z,99.99
2022-11-14T05:45:48.862Z,99.99
2022-11-14T05:46:48.775Z,99.99
2022-11-14T05:47:48.687Z,99.99
2022-11-14T05:48:48.605Z,99.99
2022-11-14T05:49:48.515Z,99.99
2022-11-14T05:50:48.430Z,99.99
2022-11-14T05:51:48.342Z,99.99
2022-11-14T05:52:48.260Z,99.99
2022-11-14T05:53:48.170Z,99.99
2022-11-14T05:54:48.087Z,99.99
2022-11-14T05:55:48.001Z,99.99
2022-11-14T05:56:47.918Z,99.99
2022-11-14T05:57:47.829Z,99.99
2022-11-14T05:58:47.749Z,99.99
2022-11-14T05:59:47.656Z,99.99
2022-11-14T06:00:53.518Z,99.99
2022-11-14T06:01:47.536Z,99.99
2022-11-14T06:02:47.410Z,99.99
2022-11-14T06:03:47.323Z,99.99
2022-11-14T06:04:47.235Z,99.99
2022-11-14T06:05:47.146Z,99.99
2022-11-14T06:06:47.085Z,99.99
2022-11-14T06:07:46.988Z,99.99
2022-11-14T06:08:46.896Z,99.99
2022-11-14T06:09:46.811Z,99.99
2022-11-14T06:10:46.723Z,99.99
2022-11-14T06:11:46.632Z,99.99
2022-11-14T06:12:46.553Z,99.99
2022-11-14T06:13:46.466Z,99.99
2022-11-14T06:14:46.383Z,99.99
2022-11-14T06:15:46.295Z,99.99
2022-11-14T06:16:46.207Z,99.99
2022-11-14T06:17:46.123Z,99.99
2022-11-14T06:18:46.041Z,99.99
2022-11-14T06:19:45.954Z,99.99
2022-11-14T06:20:45.874Z,99.99
2022-11-14T06:21:45.792Z,99.99
2022-11-14T06:22:45.700Z,99.99
2022-11-14T06:23:45.613Z,99.99
2022-11-14T06:24:45.529Z,99.99
2022-11-14T06:25:45.442Z,99.99
2022-11-14T06:26:45.355Z,99.99
2022-11-14T06:27:45.270Z,99.99
2022-11-14T06:28:45.185Z,99.99
2022-11-14T06:29:45.105Z,99.99
2022-11-14T06:30:45.031Z,99.99
2022-11-14T06:31:44.930Z,99.99
2022-11-14T06:32:44.849Z,99.99
2022-11-14T06:33:44.758Z,99.99
2022-11-14T06:34:44.677Z,99.99
2022-11-14T06:35:44.599Z,99.99
2022-11-14T06:36:44.535Z,99.99
2022-11-14T06:37:44.418Z,99.99
2022-11-14T06:38:44.341Z,99.99
2022-11-14T06:39:44.260Z,99.99
2022-11-14T06:40:44.165Z,99.99
2022-11-14T06:41:44.081Z,99.99
2022-11-14T06:42:43.997Z,99.99
2022-11-14T06:43:43.911Z,99.99
2022-11-14T06:44:43.822Z,99.99
2022-11-14T06:45:43.740Z,99.99
2022-11-14T06:46:43.652Z,99.99
2022-11-14T06:47:43.568Z,99.99
2022-11-14T06:48:43.483Z,99.99
2022-11-14T06:49:43.396Z,99.99
2022-11-14T06:50:43.312Z,99.99
2022-11-14T06:51:43.230Z,99.99
2022-11-14T06:52:43.148Z,99.99
2022-11-14T06:53:43.065Z,99.99
2022-11-14T06:54:42.980Z,99.99
2022-11-14T06:55:42.891Z,99.99
2022-11-14T06:56:42.805Z,99.99
2022-11-14T06:57:42.723Z,99.99
2022-11-14T06:58:42.637Z,99.99
2022-11-14T06:59:42.546Z,99.99
2022-11-14T07:00:42.466Z,99.99
2022-11-14T07:01:42.380Z,99.99
2022-11-14T07:02:42.325Z,99.99
2022-11-14T07:03:42.214Z,99.99
2022-11-14T07:04:42.124Z,99.99
2022-11-14T07:05:42.039Z,99.99
2022-11-14T07:06:41.956Z,99.99
2022-11-14T07:07:41.872Z,99.99
2022-11-14T07:08:41.794Z,99.99
2022-11-14T07:09:41.700Z,99.99
2022-11-14T07:10:41.624Z,99.99
2022-11-14T07:11:41.530Z,99.99
2022-11-14T07:12:41.452Z,99.99
2022-11-14T07:13:41.366Z,99.99
2022-11-14T07:14:41.278Z,99.99
2022-11-14T07:15:41.198Z,99.99
2022-11-14T07:16:41.110Z,99.99
2022-11-14T07:17:41.026Z,99.99
2022-11-14T07:18:40.943Z,99.99
2022-11-14T07:19:40.853Z,99.99
2022-11-14T07:20:40.770Z,99.99
2022-11-14T07:21:40.686Z,99.99
2022-11-14T07:22:40.604Z,99.99
2022-11-14T07:23:40.514Z,99.99
2022-11-14T07:24:40.432Z,99.99
2022-11-14T07:25:40.352Z,99.99
2022-11-14T07:26:40.258Z,99.99
2022-11-14T07:27:40.173Z,99.99
2022-11-14T07:28:40.094Z,99.99
2022-11-14T07:29:40.011Z,99.99
2022-11-14T07:30:39.919Z,99.99
2022-11-14T07:31:39.838Z,99.99
2022-11-14T07:32:39.755Z,99.99
2022-11-14T07:33:39.668Z,99.99
2022-11-14T07:34:39.583Z,99.99
2022-11-14T07:35:39.497Z,99.99
2022-11-14T07:36:39.413Z,99.99
2022-11-14T07:37:39.329Z,99.99
2022-11-14T07:38:39.245Z,99.99
2022-11-14T07:39:39.158Z,99.99
2022-11-14T07:40:39.082Z,99.99
2022-11-14T07:41:38.994Z,99.99
2022-11-14T07:42:38.907Z,99.99
2022-11-14T07:43:38.823Z,99.99
2022-11-14T07:44:38.739Z,99.99
2022-11-14T07:45:38.651Z,99.99
2022-11-14T07:46:38.569Z,99.99
2022-11-14T07:47:38.483Z,99.99
2022-11-14T07:48:38.403Z,99.99
2022-11-14T07:49:38.314Z,99.99
2022-11-14T07:50:38.227Z,99.99
2022-11-14T07:51:38.148Z,99.99
2022-11-14T07:52:38.060Z,99.99
2022-11-14T07:53:37.980Z,99.99
2022-11-14T07:54:37.890Z,99.99
2022-11-14T07:55:37.810Z,99.99
2022-11-14T07:56:37.730Z,99.99
2022-11-14T07:57:41.920Z,99.99
2022-11-14T07:58:37.558Z,99.99
2022-11-14T07:59:37.477Z,99.99
2022-11-14T08:00:37.432Z,99.99
2022-11-14T08:01:37.365Z,99.99
2022-11-14T08:02:37.224Z,99.99
2022-11-14T08:03:40.925Z,99.99
2022-11-14T08:04:37.058Z,99.99
2022-11-14T08:05:36.993Z,99.99
2022-11-14T08:06:36.889Z,99.99
2022-11-14T08:07:36.883Z,99.99
2022-11-14T08:08:36.720Z,99.99
2022-11-14T08:09:36.636Z,99.99
2022-11-14T08:10:36.550Z,99.99
2022-11-14T08:11:36.468Z,99.99
2022-11-14T08:12:36.393Z,99.99
2022-11-14T08:13:36.304Z,99.99
2022-11-14T08:14:36.224Z,99.99
2022-11-14T08:15:36.135Z,99.99
2022-11-14T08:16:36.054Z,99.99
2022-11-14T08:17:35.972Z,99.99
2022-11-14T08:18:35.898Z,99.99
2022-11-14T08:19:35.809Z,99.99
2022-11-14T08:20:35.722Z,99.99
2022-11-14T08:21:35.638Z,99.99
2022-11-14T08:22:35.558Z,99.99
2022-11-14T08:23:35.481Z,99.99
2022-11-14T08:24:35.386Z,99.99
2022-11-14T08:25:35.310Z,99.99
2022-11-14T08:26:35.222Z,99.99
2022-11-14T08:27:35.139Z,99.99
2022-11-14T08:28:35.258Z,99.99
2022-11-14T08:29:34.979Z,99.99
2022-11-14T08:30:34.889Z,99.99
2022-11-14T08:31:34.810Z,99.99
2022-11-14T08:32:34.724Z,99.99
2022-11-14T08:33:34.644Z,99.99
2022-11-14T08:34:34.555Z,99.99
2022-11-14T08:35:34.477Z,99.99
2022-11-14T08:36:34.393Z,99.99
2022-11-14T08:37:34.313Z,99.99
2022-11-14T08:38:34.244Z,99.99
2022-11-14T08:39:34.143Z,99.99
2022-11-14T08:40:34.061Z,99.99
2022-11-14T08:41:33.982Z,99.99
2022-11-14T08:42:33.894Z,99.99
2022-11-14T08:43:33.815Z,99.97
2022-11-14T08:44:33.740Z,99.50
2022-11-14T08:45:33.652Z,99.30
2022-11-14T08:46:33.581Z,99.02
2022-11-14T08:47:33.487Z,99.55
2022-11-14T08:48:33.725Z,99.93
2022-11-14T08:49:33.319Z,99.36
2022-11-14T08:50:33.238Z,98.12
2022-11-14T08:51:33.612Z,97.03
2022-11-14T08:52:33.070Z,97.17
2022-11-14T08:53:32.992Z,96.65
2022-11-14T08:54:32.906Z,97.22
2022-11-14T08:55:32.823Z,96.26
2022-11-14T08:56:32.745Z,95.41
2022-11-14T08:57:32.666Z,95.60
2022-11-14T08:58:33.001Z,95.03
2022-11-14T08:59:32.496Z,94.46
2022-11-14T09:00:32.416Z,94.37
2022-11-14T09:01:32.360Z,95.41
2022-11-14T09:02:32.253Z,95.22
2022-11-14T09:03:32.372Z,94.74
2022-11-14T09:04:32.127Z,95.12
2022-11-14T09:05:32.009Z,94.74
2022-11-14T09:06:31.926Z,95.08
2022-11-14T09:07:31.873Z,94.51
2022-11-14T09:08:32.066Z,93.84
2022-11-14T09:09:31.681Z,93.94
2022-11-14T09:10:31.598Z,93.89
2022-11-14T09:11:31.519Z,94.70
2022-11-14T09:12:31.435Z,94.42
2022-11-14T09:13:31.630Z,94.70
2022-11-14T09:14:31.272Z,94.42
2022-11-14T09:15:31.193Z,93.74
2022-11-14T09:16:31.107Z,93.55
2022-11-14T09:17:31.033Z,93.18
2022-11-14T09:18:31.417Z,93.46
2022-11-14T09:19:30.865Z,94.22
2022-11-14T09:20:34.199Z,93.37
2022-11-14T09:21:30.702Z,93.74
2022-11-14T09:22:30.621Z,94.03
2022-11-14T09:23:30.963Z,93.08
2022-11-14T09:24:30.460Z,93.37
2022-11-14T09:25:30.394Z,93.03
2022-11-14T09:26:30.297Z,92.94
2022-11-14T09:27:30.217Z,93.03
2022-11-14T09:28:30.138Z,92.74
2022-11-14T09:29:30.053Z,92.18
2022-11-14T09:30:29.970Z,91.99
2022-11-14T09:31:29.897Z,92.84
2022-11-14T09:32:29.822Z,93.27
2022-11-14T09:33:30.118Z,92.03
2022-11-14T09:34:29.649Z,90.56
2022-11-14T09:35:29.566Z,90.75
2022-11-14T09:36:29.487Z,90.56
2022-11-14T09:37:29.409Z,91.03
2022-11-14T09:38:32.776Z,90.84
2022-11-14T09:39:29.244Z,92.65
2022-11-14T09:40:29.165Z,92.32
2022-11-14T09:41:29.085Z,91.84
2022-11-14T09:42:29.000Z,91.79
2022-11-14T09:43:29.284Z,91.79
2022-11-14T09:44:28.844Z,92.74
2022-11-14T09:45:28.764Z,92.08
2022-11-14T09:46:28.681Z,91.79
2022-11-14T09:47:28.605Z,91.84
2022-11-14T09:48:28.777Z,92.03
2022-11-14T09:49:28.448Z,90.89
2022-11-14T09:50:28.365Z,91.74
2022-11-14T09:51:28.286Z,91.79
2022-11-14T09:52:28.198Z,90.89
2022-11-14T09:53:28.122Z,90.93
2022-11-14T09:54:28.041Z,90.12
2022-11-14T09:55:32.198Z,90.70
2022-11-14T09:56:27.879Z,90.12
2022-11-14T09:57:27.807Z,90.22
2022-11-14T09:58:28.011Z,90.60
2022-11-14T09:59:27.643Z,89.84
2022-11-14T10:00:27.582Z,89.94
2022-11-14T10:01:27.524Z,89.84
2022-11-14T10:02:27.407Z,91.22
2022-11-14T10:03:27.653Z,90.36
2022-11-14T10:04:27.248Z,90.26
2022-11-14T10:05:27.194Z,88.93
2022-11-14T10:06:27.087Z,88.45
2022-11-14T10:07:27.065Z,89.79
2022-11-14T10:08:26.931Z,89.60
2022-11-14T10:09:30.417Z,90.26
2022-11-14T10:10:26.778Z,89.12
2022-11-14T10:11:26.693Z,88.64
2022-11-14T10:12:26.618Z,87.98
2022-11-14T10:13:26.558Z,88.45
2022-11-14T10:14:26.454Z,88.36
2022-11-14T10:15:31.125Z,89.22
2022-11-14T10:16:26.294Z,89.69
2022-11-14T10:17:26.216Z,89.54
2022-11-14T10:18:26.136Z,87.35
2022-11-14T10:19:26.068Z,87.74
2022-11-14T10:20:25.989Z,88.02
2022-11-14T10:21:25.902Z,87.31
2022-11-14T10:22:25.823Z,88.55
2022-11-14T10:23:25.739Z,87.31
2022-11-14T10:24:25.660Z,87.88
2022-11-14T10:25:25.595Z,89.12
2022-11-14T10:26:25.504Z,89.12
2022-11-14T10:27:25.422Z,88.55
2022-11-14T10:28:25.345Z,87.93
2022-11-14T10:29:25.273Z,88.12
2022-11-14T10:30:25.188Z,87.60
2022-11-14T10:31:25.104Z,87.35
2022-11-14T10:32:25.025Z,88.59
2022-11-14T10:33:24.953Z,88.40
2022-11-14T10:34:24.870Z,87.93
2022-11-14T10:35:24.793Z,87.74
2022-11-14T10:36:24.711Z,87.26
2022-11-14T10:37:24.631Z,86.98
2022-11-14T10:38:24.549Z,87.16
2022-11-14T10:39:24.478Z,86.73
2022-11-14T10:40:24.395Z,85.73
2022-11-14T10:41:50.027Z,85.49
2022-11-14T10:42:24.230Z,85.73
2022-11-14T10:43:24.154Z,85.97
2022-11-14T10:44:24.076Z,87.02
2022-11-14T10:45:23.999Z,87.30
2022-11-14T10:46:23.915Z,87.21
2022-11-14T10:47:23.834Z,86.82
2022-11-14T10:48:23.760Z,86.87
2022-11-14T10:49:23.683Z,86.30
2022-11-14T10:50:23.602Z,84.29
2022-11-14T10:51:23.519Z,85.15
2022-11-14T10:52:23.442Z,85.34
2022-11-14T10:53:23.360Z,84.72
2022-11-14T10:54:23.424Z,84.53
2022-11-14T10:55:43.527Z,84.34
2022-11-14T10:56:23.121Z,86.20
2022-11-14T10:57:23.050Z,84.58
2022-11-14T10:58:22.963Z,85.53
2022-11-14T10:59:22.887Z,86.01
2022-11-14T11:00:22.813Z,87.63
2022-11-14T11:01:22.765Z,85.63
2022-11-14T11:02:22.646Z,84.58
2022-11-14T11:03:22.583Z,85.15
2022-11-14T11:04:22.578Z,85.91
2022-11-14T11:05:22.416Z,84.58
2022-11-14T11:06:22.331Z,85.30
2022-11-14T11:07:22.285Z,86.16
2022-11-14T11:08:42.785Z,87.06
2022-11-14T11:09:22.123Z,85.72
2022-11-14T11:10:22.019Z,85.21
2022-11-14T11:11:21.936Z,85.53
2022-11-14T11:12:21.884Z,84.34
2022-11-14T11:13:21.781Z,84.06
2022-11-14T11:14:21.700Z,86.16
2022-11-14T11:15:21.626Z,85.15
2022-11-14T11:16:21.539Z,84.06
2022-11-14T11:17:21.472Z,84.48
2022-11-14T11:18:21.389Z,84.39
2022-11-14T11:19:21.305Z,84.67
2022-11-14T11:20:21.225Z,84.29
2022-11-14T11:21:21.193Z,84.48
2022-11-14T11:22:21.074Z,85.15
2022-11-14T11:23:20.988Z,85.44
2022-11-14T11:24:20.914Z,84.77
2022-11-14T11:25:20.836Z,85.44
2022-11-14T11:26:20.755Z,84.39
2022-11-14T11:27:20.681Z,84.77
2022-11-14T11:28:20.602Z,85.44
2022-11-14T11:29:20.520Z,84.58
2022-11-14T11:30:20.441Z,85.05
2022-11-14T11:31:20.360Z,85.15
2022-11-14T11:32:20.284Z,84.58
2022-11-14T11:33:20.209Z,85.15
2022-11-14T11:34:20.122Z,85.25
2022-11-14T11:35:20.048Z,85.44
2022-11-14T11:36:19.970Z,86.10
2022-11-14T11:37:19.931Z,86.01
2022-11-14T11:38:19.805Z,84.67
2022-11-14T11:39:19.730Z,85.25
2022-11-14T11:40:19.657Z,84.10
2022-11-14T11:41:33.428Z,83.81
2022-11-14T11:42:19.494Z,84.48
2022-11-14T11:44:19.333Z,85.15
2022-11-14T11:45:19.266Z,86.20
2022-11-14T11:46:19.177Z,86.01
2022-11-14T11:47:19.098Z,85.15
2022-11-14T11:48:19.020Z,85.82
2022-11-14T11:49:18.946Z,85.44
2022-11-14T11:50:18.862Z,84.62
2022-11-14T11:51:18.783Z,85.00
2022-11-14T11:52:18.707Z,86.63
2022-11-14T11:53:18.628Z,85.96
2022-11-14T11:54:18.545Z,85.29
2022-11-14T11:55:18.472Z,86.05
2022-11-14T11:56:18.400Z,85.38
2022-11-14T11:57:21.631Z,85.38
2022-11-14T11:58:18.238Z,85.19
2022-11-14T11:59:18.162Z,85.00
2022-11-14T12:00:18.076Z,87.10
2022-11-14T12:01:18.001Z,85.38
2022-11-14T12:02:18.028Z,84.72
2022-11-14T12:03:21.039Z,84.52
2022-11-14T12:04:17.767Z,86.53
2022-11-14T12:05:17.688Z,86.91
2022-11-14T12:06:17.609Z,85.38
2022-11-14T12:07:17.577Z,85.29
2022-11-14T12:08:21.369Z,85.19
2022-11-14T12:09:17.376Z,84.52
2022-11-14T12:10:17.293Z,85.86
2022-11-14T12:11:17.222Z,86.15
2022-11-14T12:12:17.137Z,86.91
2022-11-14T12:13:17.069Z,85.96
2022-11-14T12:14:16.978Z,84.33
2022-11-14T12:15:16.904Z,86.05
2022-11-14T12:16:16.818Z,85.96
2022-11-14T12:17:16.743Z,85.29
2022-11-14T12:18:16.667Z,85.67
2022-11-14T12:19:16.600Z,85.29
2022-11-14T12:20:16.507Z,85.29
2022-11-14T12:21:16.430Z,85.42
2022-11-14T12:22:16.368Z,87.34
2022-11-14T12:23:16.270Z,85.05
2022-11-14T12:24:16.197Z,84.85
2022-11-14T12:25:16.116Z,84.81
2022-11-14T12:26:16.037Z,85.62
2022-11-14T12:27:15.978Z,85.33
2022-11-14T12:28:15.884Z,85.14
2022-11-14T12:29:16.589Z,84.95
2022-11-14T12:30:15.721Z,84.38
2022-11-14T12:31:15.646Z,84.66
2022-11-14T12:32:15.567Z,84.95
2022-11-14T12:33:15.494Z,85.33
2022-11-14T12:34:15.556Z,84.05
2022-11-14T12:35:15.364Z,84.23
2022-11-14T12:36:15.253Z,85.05
2022-11-14T12:37:15.265Z,85.24
2022-11-14T12:38:15.095Z,84.56
2022-11-14T12:39:15.021Z,85.90
2022-11-14T12:40:14.940Z,86.86
2022-11-14T12:41:14.864Z,86.57
2022-11-14T12:42:14.785Z,84.66
2022-11-14T12:43:14.704Z,82.75
2022-11-14T12:44:14.647Z,83.70
2022-11-14T12:45:14.557Z,84.85
2022-11-14T12:46:14.475Z,84.09
2022-11-14T12:47:14.395Z,83.99
2022-11-14T12:48:14.318Z,82.37
2022-11-14T12:49:14.240Z,83.04
2022-11-14T12:50:14.211Z,83.99
2022-11-14T12:51:14.153Z,82.56
2022-11-14T12:52:13.999Z,83.51
2022-11-14T12:53:13.923Z,82.75